createdAt,value
2023-02-22T00:00:19.516Z,99.90
2023-02-22T00:02:48.384Z,99.90
2023-02-22T00:05:16.889Z,99.90
2023-02-22T00:07:44.678Z,99.90
2023-02-22T00:10:14.325Z,99.90
2023-02-22T00:12:41.934Z,99.90
2023-02-22T00:15:09.686Z,99.90
2023-02-22T00:17:36.358Z,99.90
2023-02-22T00:20:06.113Z,99.90
2023-02-22T00:22:33.548Z,99.90
2023-02-22T00:25:00.132Z,99.90
2023-02-22T00:27:26.995Z,99.90
2023-02-22T00:29:56.519Z,99.90
2023-02-22T00:32:23.913Z,99.90
2023-02-22T00:34:54.181Z,99.90
2023-02-22T00:37:21.288Z,99.90
2023-02-22T00:39:48.937Z,99.90
2023-02-22T00:42:16.071Z,99.90
2023-02-22T00:44:42.770Z,99.90
2023-02-22T00:47:09.924Z,99.90
2023-02-22T00:49:36.942Z,99.90
2023-02-22T00:52:04.690Z,99.90
2023-02-22T00:54:31.286Z,99.90
2023-02-22T00:56:58.220Z,99.90
2023-02-22T00:59:24.825Z,99.90
2023-02-22T01:01:51.429Z,99.90
2023-02-22T01:04:18.436Z,99.90
2023-02-22T01:06:45.264Z,99.90
2023-02-22T01:09:12.047Z,99.90
2023-02-22T01:11:38.654Z,99.90
2023-02-22T01:14:09.638Z,99.90
2023-02-22T01:16:36.386Z,99.90
2023-02-22T01:19:03.125Z,99.90
2023-02-22T01:21:29.728Z,99.90
2023-02-22T01:23:56.354Z,99.90
2023-02-22T01:26:23.111Z,99.90
2023-02-22T01:28:49.745Z,99.90
2023-02-22T01:31:16.689Z,99.90
2023-02-22T01:33:44.603Z,99.90
2023-02-22T01:36:11.549Z,99.90
2023-02-22T01:38:38.645Z,99.90
2023-02-22T01:41:05.680Z,99.90
2023-02-22T01:43:32.737Z,99.90
2023-02-22T01:46:02.533Z,99.90
2023-02-22T01:48:32.309Z,99.90
2023-02-22T01:51:00.961Z,99.90
2023-02-22T01:53:36.394Z,99.90
2023-02-22T01:56:03.754Z,99.90
2023-02-22T01:58:32.685Z,99.90
2023-02-22T02:00:59.324Z,99.90
2023-02-22T02:03:28.401Z,99.90
2023-02-22T02:05:56.817Z,99.90
2023-02-22T02:08:42.478Z,99.90
2023-02-22T02:11:09.670Z,99.90
2023-02-22T02:13:36.347Z,99.90
2023-02-22T02:16:03.122Z,99.90
2023-02-22T02:18:30.010Z,99.90
2023-02-22T02:20:56.643Z,99.90
2023-02-22T02:23:42.049Z,99.90
2023-02-22T02:26:27.537Z,99.90
2023-02-22T02:29:07.096Z,99.90
2023-02-22T02:31:33.701Z,99.90
2023-02-22T02:34:00.303Z,99.90
2023-02-22T02:36:34.000Z,99.90
2023-02-22T02:39:19.508Z,99.90
2023-02-22T02:41:48.338Z,99.90
2023-02-22T02:44:17.992Z,99.90
2023-02-22T02:46:47.727Z,99.90
2023-02-22T02:49:29.844Z,99.90
2023-02-22T02:51:57.096Z,99.90
2023-02-22T02:54:24.360Z,99.90
2023-02-22T02:56:51.349Z,99.90
2023-02-22T02:59:25.879Z,99.90
2023-02-22T03:02:02.245Z,99.90
2023-02-22T03:04:48.848Z,99.90
2023-02-22T03:07:18.371Z,99.90
2023-02-22T03:09:44.977Z,99.90
2023-02-22T03:12:19.141Z,99.90
2023-02-22T03:14:48.782Z,99.90
2023-02-22T03:17:20.908Z,99.90
2023-02-22T03:19:50.621Z,99.90
2023-02-22T03:22:27.560Z,99.90
2023-02-22T03:25:07.148Z,99.90
2023-02-22T03:27:43.657Z,99.90
2023-02-22T03:30:12.332Z,99.90
2023-02-22T03:32:41.238Z,99.90
2023-02-22T03:35:09.759Z,99.90
2023-02-22T03:37:42.279Z,99.90
2023-02-22T03:40:16.559Z,99.90
2023-02-22T03:42:47.095Z,99.90
2023-02-22T03:45:15.570Z,99.90
2023-02-22T03:47:45.723Z,99.90
2023-02-22T03:50:18.360Z,99.90
2023-02-22T03:52:45.430Z,99.90
2023-02-22T03:55:12.742Z,99.90
2023-02-22T03:57:41.616Z,99.90
2023-02-22T04:00:09.931Z,99.90
2023-02-22T04:02:36.529Z,99.90
2023-02-22T04:05:03.279Z,99.90
2023-02-22T04:07:29.882Z,99.90
2023-02-22T04:09:56.505Z,99.90
2023-02-22T04:12:23.525Z,99.90
2023-02-22T04:14:50.122Z,99.90
2023-02-22T04:17:16.791Z,99.90
2023-02-22T04:19:45.672Z,99.90
2023-02-22T04:22:12.382Z,99.90
2023-02-22T04:24:38.973Z,99.90
2023-02-22T04:27:05.590Z,99.90
2023-02-22T04:29:32.171Z,99.90
2023-02-22T04:31:58.803Z,99.90
2023-02-22T04:34:25.414Z,99.90
2023-02-22T04:36:52.435Z,99.90
2023-02-22T04:39:19.188Z,99.90
2023-02-22T04:41:47.643Z,99.90
2023-02-22T04:44:14.479Z,99.90
2023-02-22T04:46:41.180Z,99.90
2023-02-22T04:49:07.834Z,99.90
2023-02-22T04:51:36.301Z,99.90
2023-02-22T04:54:03.037Z,99.90
2023-02-22T04:56:29.719Z,99.90
2023-02-22T04:58:56.347Z,99.90
2023-02-22T05:01:23.544Z,99.90
2023-02-22T05:03:50.166Z,99.90
2023-02-22T05:06:17.763Z,99.90
2023-02-22T05:08:44.377Z,99.90
2023-02-22T05:11:10.994Z,99.90
2023-02-22T05:13:37.594Z,99.90
2023-02-22T05:16:04.436Z,99.90
2023-02-22T05:18:31.049Z,99.90
2023-02-22T05:20:57.689Z,99.90
2023-02-22T05:23:24.285Z,99.90
2023-02-22T05:25:50.895Z,99.90
2023-02-22T05:28:17.512Z,99.90
2023-02-22T05:30:44.335Z,99.90
2023-02-22T05:33:11.041Z,99.90
2023-02-22T05:35:37.645Z,99.90
2023-02-22T05:38:04.656Z,99.90
2023-02-22T05:40:31.547Z,99.90
2023-02-22T05:42:58.714Z,99.90
2023-02-22T05:45:27.371Z,99.90
2023-02-22T05:47:54.609Z,99.90
2023-02-22T05:50:21.994Z,99.90
2023-02-22T05:52:48.827Z,99.90
2023-02-22T05:55:16.514Z,99.90
2023-02-22T05:57:43.196Z,99.90
2023-02-22T06:00:11.271Z,99.90
2023-02-22T06:02:37.867Z,99.90
2023-02-22T06:05:04.533Z,99.90
2023-02-22T06:07:31.165Z,99.90
2023-02-22T06:09:57.786Z,99.90
2023-02-22T06:12:24.422Z,99.90
2023-02-22T06:14:51.062Z,99.90
2023-02-22T06:17:19.716Z,99.90
2023-02-22T06:19:47.150Z,99.90
2023-02-22T06:22:17.589Z,99.90
2023-02-22T06:24:44.352Z,99.90
2023-02-22T06:27:11.064Z,99.90
2023-02-22T06:29:37.754Z,99.90
2023-02-22T06:32:04.597Z,99.90
2023-02-22T06:34:31.301Z,99.90
2023-02-22T06:36:59.929Z,99.90
2023-02-22T06:39:26.757Z,99.90
2023-02-22T06:41:55.214Z,99.90
2023-02-22T06:44:21.992Z,99.90
2023-02-22T06:46:51.087Z,99.90
2023-02-22T06:49:18.580Z,99.90
2023-02-22T06:51:45.596Z,99.90
2023-02-22T06:54:12.219Z,99.90
2023-02-22T06:56:38.933Z,99.90
2023-02-22T06:59:05.531Z,99.90
2023-02-22T07:01:32.152Z,99.90
2023-02-22T07:03:58.753Z,99.90
2023-02-22T07:06:25.359Z,99.90
2023-02-22T07:08:51.996Z,99.90
2023-02-22T07:11:18.942Z,99.90
2023-02-22T07:13:45.731Z,99.90
2023-02-22T07:16:12.375Z,99.90
2023-02-22T07:18:39.135Z,99.90
2023-02-22T07:21:06.293Z,99.90
2023-02-22T07:23:33.414Z,99.90
2023-02-22T07:26:01.070Z,99.90
2023-02-22T07:28:27.690Z,99.90
2023-02-22T07:30:54.318Z,99.90
2023-02-22T07:33:20.985Z,99.90
2023-02-22T07:35:49.227Z,99.90
2023-02-22T07:38:16.954Z,99.90
2023-02-22T07:40:43.899Z,99.90
2023-02-22T07:43:21.258Z,99.90
2023-02-22T07:45:49.227Z,99.90
2023-02-22T07:48:17.723Z,99.90
2023-02-22T07:50:44.632Z,99.90
2023-02-22T07:53:15.860Z,99.90
2023-02-22T07:55:43.537Z,99.90
2023-02-22T07:58:12.851Z,99.90
2023-02-22T08:00:40.079Z,99.90
2023-02-22T08:03:10.772Z,99.90
2023-02-22T08:05:38.225Z,99.90
2023-02-22T08:08:06.140Z,99.90
2023-02-22T08:10:33.417Z,99.90
2023-02-22T08:13:00.138Z,99.90
2023-02-22T08:15:28.448Z,99.90
2023-02-22T08:17:55.755Z,99.90
2023-02-22T08:20:22.844Z,99.60
2023-02-22T08:22:50.042Z,97.70
2023-02-22T08:25:17.581Z,94.10
2023-02-22T08:27:44.390Z,92.70
2023-02-22T08:30:13.743Z,93.90
2023-02-22T08:32:40.539Z,92.40
2023-02-22T08:35:07.560Z,92.20
2023-02-22T08:37:34.154Z,92.20
2023-02-22T08:40:00.748Z,92.50
2023-02-22T08:42:27.355Z,90.20
2023-02-22T08:44:53.928Z,91.90
2023-02-22T08:47:20.561Z,89.60
2023-02-22T08:49:47.159Z,88.60
2023-02-22T08:52:13.759Z,84.70
2023-02-22T08:54:40.381Z,84.10
2023-02-22T08:57:07.232Z,83.00
2023-02-22T08:59:33.857Z,78.90
2023-02-22T09:02:01.119Z,78.00
2023-02-22T09:04:27.787Z,72.20
2023-02-22T09:06:54.409Z,69.00
2023-02-22T09:09:21.488Z,62.90
2023-02-22T09:11:48.551Z,58.00
2023-02-22T09:14:16.518Z,55.10
2023-02-22T09:16:46.267Z,53.80
2023-02-22T09:19:12.900Z,49.30
2023-02-22T09:21:40.397Z,47.00
2023-02-22T09:24:08.467Z,44.20
2023-02-22T09:26:39.473Z,40.50
2023-02-22T09:29:09.704Z,40.00
2023-02-22T09:31:37.273Z,38.20
2023-02-22T09:34:06.455Z,35.10
2023-02-22T09:36:33.285Z,33.70
2023-02-22T09:38:59.983Z,32.10
2023-02-22T09:41:35.251Z,31.30
2023-02-22T09:44:22.408Z,29.90
2023-02-22T09:46:49.655Z,29.30
2023-02-22T09:49:34.505Z,28.60
2023-02-22T09:52:13.546Z,27.70
2023-02-22T09:54:43.359Z,28.80
2023-02-22T09:57:13.671Z,29.40
2023-02-22T09:59:42.370Z,30.30
2023-02-22T10:02:24.578Z,31.20
2023-02-22T10:05:05.664Z,32.10
2023-02-22T10:07:37.038Z,34.10
2023-02-22T10:10:06.457Z,35.30
2023-02-22T10:12:36.373Z,35.00
2023-02-22T10:15:19.409Z,38.20
2023-02-22T10:17:49.142Z,39.60
2023-02-22T10:20:15.756Z,38.70
2023-02-22T10:22:43.354Z,39.20
2023-02-22T10:25:17.880Z,40.30
2023-02-22T10:27:47.909Z,41.20
2023-02-22T10:30:24.580Z,40.20
2023-02-22T10:32:55.849Z,40.00
2023-02-22T10:35:27.618Z,40.60
2023-02-22T10:37:59.469Z,41.60
2023-02-22T10:40:32.193Z,41.90
2023-02-22T10:43:03.091Z,42.50
2023-02-22T10:45:32.541Z,42.70
2023-02-22T10:48:00.721Z,43.30
2023-02-22T10:50:29.596Z,43.60
2023-02-22T10:52:56.452Z,44.50
2023-02-22T10:55:23.113Z,44.00
2023-02-22T10:57:51.246Z,44.40
2023-02-22T11:00:26.242Z,44.50
2023-02-22T11:02:57.079Z,44.70
2023-02-22T11:05:28.948Z,44.10
2023-02-22T11:08:17.507Z,45.40
2023-02-22T11:10:44.200Z,43.30
2023-02-22T11:13:25.906Z,43.40
2023-02-22T11:15:58.235Z,44.00
2023-02-22T11:18:26.619Z,43.20
2023-02-22T11:21:00.317Z,44.60
2023-02-22T11:23:26.925Z,44.80
2023-02-22T11:26:01.730Z,44.80
2023-02-22T11:28:32.955Z,44.20
2023-02-22T11:31:09.970Z,43.90
2023-02-22T11:33:37.853Z,43.80
2023-02-22T11:36:08.785Z,44.00
2023-02-22T11:38:53.002Z,44.30
2023-02-22T11:41:24.205Z,43.90
2023-02-22T11:43:51.243Z,43.30
2023-02-22T11:46:22.029Z,43.10
2023-02-22T11:49:00.946Z,44.10
2023-02-22T11:51:36.683Z,44.40
2023-02-22T11:54:12.805Z,44.50
2023-02-22T11:56:50.263Z,45.00
2023-02-22T11:59:27.832Z,43.50
2023-02-22T12:01:54.422Z,44.80
2023-02-22T12:04:39.696Z,44.50
2023-02-22T12:07:36.078Z,45.80
2023-02-22T12:10:09.037Z,44.70
2023-02-22T12:12:35.630Z,43.70
2023-02-22T12:15:14.320Z,44.00
2023-02-22T12:17:43.611Z,44.40
2023-02-22T12:20:21.950Z,44.80
2023-02-22T12:23:00.863Z,44.70
2023-02-22T12:25:47.802Z,45.00
2023-02-22T12:28:24.774Z,46.50
2023-02-22T12:30:54.423Z,45.90
2023-02-22T12:33:25.047Z,46.90
2023-02-22T12:35:54.052Z,46.00
2023-02-22T12:38:23.666Z,46.30
2023-02-22T12:40:54.296Z,46.60
2023-02-22T12:43:23.897Z,46.50
2023-02-22T12:45:54.763Z,47.00
2023-02-22T12:48:21.569Z,47.90
2023-02-22T12:50:50.964Z,47.90
2023-02-22T12:53:46.974Z,47.40
2023-02-22T12:56:22.287Z,47.70
2023-02-22T12:58:54.057Z,47.60
2023-02-22T13:01:25.924Z,48.00
2023-02-22T13:03:53.732Z,48.20
2023-02-22T13:06:35.624Z,48.80
2023-02-22T13:09:23.367Z,49.00
2023-02-22T13:11:53.015Z,49.10
2023-02-22T13:14:25.746Z,48.30
2023-02-22T13:16:56.909Z,47.90
2023-02-22T13:19:29.597Z,48.10
2023-02-22T13:22:16.448Z,48.70
2023-02-22T13:24:52.671Z,48.10
2023-02-22T13:27:22.834Z,48.20
2023-02-22T13:29:52.051Z,48.20
2023-02-22T13:32:51.500Z,48.90
2023-02-22T13:35:35.581Z,48.70
2023-02-22T13:38:25.616Z,48.40
2023-02-22T13:41:02.558Z,48.50
2023-02-22T13:43:44.593Z,49.20
2023-02-22T13:46:34.480Z,49.20
2023-02-22T13:49:01.099Z,48.10
2023-02-22T13:51:30.909Z,47.90
2023-02-22T13:54:09.688Z,49.30
2023-02-22T13:56:39.642Z,48.50
2023-02-22T13:59:06.292Z,49.40
2023-02-22T14:01:41.984Z,50.60
2023-02-22T14:04:27.060Z,50.40
2023-02-22T14:07:04.064Z,50.60
2023-02-22T14:09:49.760Z,50.80
2023-02-22T14:12:34.886Z,51.30
2023-02-22T14:15:26.829Z,51.80
2023-02-22T14:18:07.258Z,52.20
2023-02-22T14:20:36.697Z,51.80
2023-02-22T14:23:22.416Z,51.40
2023-02-22T14:25:49.706Z,51.70
2023-02-22T14:28:36.711Z,51.90
2023-02-22T14:31:29.540Z,51.70
2023-02-22T14:34:01.432Z,52.30
2023-02-22T14:36:34.243Z,52.60
2023-02-22T14:39:16.809Z,52.20
2023-02-22T14:41:47.927Z,51.90
2023-02-22T14:44:15.657Z,52.40
2023-02-22T14:46:44.599Z,53.00
2023-02-22T14:49:18.889Z,53.10
2023-02-22T14:51:54.598Z,53.70
2023-02-22T14:54:25.687Z,53.80
2023-02-22T14:56:52.291Z,53.90
2023-02-22T14:59:20.674Z,54.10
2023-02-22T15:02:01.512Z,54.20
2023-02-22T15:04:34.719Z,54.40
2023-02-22T15:07:07.858Z,54.60
2023-02-22T15:09:37.627Z,54.70
2023-02-22T15:12:04.354Z,54.70
2023-02-22T15:14:32.957Z,54.80
2023-02-22T15:17:01.358Z,56.70
2023-02-22T15:19:28.960Z,56.90
2023-02-22T15:21:56.926Z,55.50
2023-02-22T15:24:36.871Z,55.80
2023-02-22T15:27:07.883Z,55.50
2023-02-22T15:29:44.540Z,55.80
2023-02-22T15:32:36.091Z,55.70
2023-02-22T15:35:12.651Z,55.80
2023-02-22T15:37:39.276Z,55.20
2023-02-22T15:40:14.624Z,55.70
2023-02-22T15:42:52.998Z,55.80
2023-02-22T15:45:20.938Z,55.90
2023-02-22T15:47:51.630Z,55.90
2023-02-22T15:50:23.863Z,55.90
2023-02-22T15:53:10.751Z,56.30
2023-02-22T15:55:39.706Z,56.30
2023-02-22T15:58:10.845Z,56.50
2023-02-22T16:00:38.693Z,56.80
2023-02-22T16:03:06.719Z,57.00
2023-02-22T16:05:38.887Z,57.00
2023-02-22T16:08:13.163Z,57.10
2023-02-22T16:10:41.310Z,57.60
2023-02-22T16:13:14.380Z,57.90
2023-02-22T16:15:54.238Z,57.90
2023-02-22T16:18:25.633Z,58.10
2023-02-22T16:20:59.455Z,58.40
2023-02-22T16:23:26.785Z,58.50
2023-02-22T16:26:07.506Z,58.70
2023-02-22T16:28:35.650Z,59.60
2023-02-22T16:31:02.681Z,59.80
2023-02-22T16:33:33.917Z,59.70
2023-02-22T16:36:05.182Z,59.70
2023-02-22T16:38:33.896Z,60.50
2023-02-22T16:41:00.516Z,60.50
2023-02-22T16:43:29.790Z,61.20
2023-02-22T16:45:56.435Z,62.10
2023-02-22T16:48:24.680Z,62.40
2023-02-22T16:50:52.512Z,63.00
2023-02-22T16:53:20.995Z,63.20
2023-02-22T16:55:48.299Z,63.80
2023-02-22T16:58:15.892Z,64.10
2023-02-22T17:00:42.821Z,64.40
2023-02-22T17:03:11.576Z,64.40
2023-02-22T17:05:38.264Z,65.30
2023-02-22T17:08:05.064Z,65.90
2023-02-22T17:10:32.018Z,66.60
2023-02-22T17:13:00.993Z,66.90
2023-02-22T17:15:30.223Z,67.90
2023-02-22T17:17:56.945Z,68.50
2023-02-22T17:20:32.711Z,69.10
2023-02-22T17:23:00.250Z,70.40
2023-02-22T17:25:32.152Z,71.20
2023-02-22T17:27:58.859Z,72.00
2023-02-22T17:30:25.553Z,72.50
2023-02-22T17:32:52.515Z,73.30
2023-02-22T17:35:23.053Z,74.10
2023-02-22T17:37:50.378Z,74.40
2023-02-22T17:40:17.346Z,74.80
2023-02-22T17:42:44.552Z,75.00
2023-02-22T17:45:13.872Z,75.50
2023-02-22T17:47:42.283Z,75.50
2023-02-22T17:50:12.553Z,75.80
2023-02-22T17:52:39.256Z,77.60
2023-02-22T17:55:06.598Z,77.30
2023-02-22T17:57:33.813Z,77.10
2023-02-22T18:00:01.200Z,77.90
2023-02-22T18:02:27.943Z,78.00
2023-02-22T18:04:54.606Z,78.70
2023-02-22T18:07:21.245Z,79.00
2023-02-22T18:09:47.904Z,79.50
2023-02-22T18:12:14.630Z,80.60
2023-02-22T18:14:41.272Z,80.40
2023-02-22T18:17:07.909Z,81.00
2023-02-22T18:19:34.498Z,81.30
2023-02-22T18:22:03.034Z,81.80
2023-02-22T18:24:34.318Z,82.80
2023-02-22T18:27:01.164Z,83.30
2023-02-22T18:29:28.998Z,83.70
2023-02-22T18:31:56.365Z,84.30
2023-02-22T18:34:26.089Z,85.70
2023-02-22T18:36:52.725Z,85.40
2023-02-22T18:39:19.399Z,86.40
2023-02-22T18:41:48.587Z,87.00
2023-02-22T18:44:15.942Z,87.70
2023-02-22T18:46:43.627Z,88.20
2023-02-22T18:49:14.134Z,88.90
2023-02-22T18:51:43.445Z,90.00
2023-02-22T18:54:11.788Z,90.40
2023-02-22T18:56:40.193Z,90.70
2023-02-22T18:59:08.857Z,91.30
2023-02-22T19:01:38.671Z,91.90
2023-02-22T19:04:09.757Z,92.10
2023-02-22T19:06:36.722Z,92.50
2023-02-22T19:09:04.629Z,93.00
2023-02-22T19:11:31.284Z,93.50
2023-02-22T19:13:58.169Z,94.00
2023-02-22T19:16:25.660Z,94.90
2023-02-22T19:18:56.816Z,96.30
2023-02-22T19:21:24.280Z,96.60
2023-02-22T19:23:51.061Z,97.40
2023-02-22T19:26:20.044Z,98.10
2023-02-22T19:28:47.648Z,99.20
2023-02-22T19:31:16.050Z,99.90
2023-02-22T19:33:43.015Z,99.90
2023-02-22T19:36:10.106Z,99.90
2023-02-22T19:38:37.154Z,99.90
2023-02-22T19:41:23.010Z,99.90
2023-02-22T19:43:51.059Z,99.90
2023-02-22T19:46:18.206Z,99.90
2023-02-22T19:48:45.203Z,99.90
2023-02-22T19:51:13.472Z,99.90
2023-02-22T19:53:40.908Z,99.90
2023-02-22T19:56:09.376Z,99.90
2023-02-22T19:58:37.522Z,99.90
2023-02-22T20:01:12.265Z,99.90
2023-02-22T20:03:39.160Z,99.90
2023-02-22T20:06:09.116Z,99.90
2023-02-22T20:08:36.688Z,99.90
2023-02-22T20:11:04.957Z,99.90
2023-02-22T20:13:32.478Z,99.90
2023-02-22T20:15:59.152Z,99.90
2023-02-22T20:18:25.791Z,99.90
2023-02-22T20:20:52.467Z,99.90
2023-02-22T20:23:19.285Z,99.90
2023-02-22T20:25:56.017Z,99.90
2023-02-22T20:28:24.254Z,99.90
2023-02-22T20:30:51.682Z,99.90
2023-02-22T20:33:19.337Z,99.90
2023-02-22T20:35:46.716Z,99.90
2023-02-22T20:38:14.057Z,99.90
2023-02-22T20:40:41.336Z,99.90
2023-02-22T20:43:08.239Z,99.90
2023-02-22T20:45:35.786Z,99.90
2023-02-22T20:48:02.501Z,99.90
2023-02-22T20:50:29.198Z,99.90
2023-02-22T20:52:55.873Z,99.90
2023-02-22T20:55:22.470Z,99.90
2023-02-22T20:57:49.108Z,99.90
2023-02-22T21:00:18.012Z,99.90
2023-02-22T21:02:46.697Z,99.90
2023-02-22T21:05:13.508Z,99.90
2023-02-22T21:07:40.297Z,99.90
2023-02-22T21:10:07.071Z,99.90
2023-02-22T21:12:34.614Z,99.90
2023-02-22T21:15:01.241Z,99.90
2023-02-22T21:17:28.961Z,99.90
2023-02-22T21:19:56.281Z,99.90
2023-02-22T21:22:24.314Z,99.90
2023-02-22T21:24:51.468Z,99.90
2023-02-22T21:27:18.116Z,99.90
2023-02-22T21:29:44.729Z,99.90
2023-02-22T21:32:12.759Z,99.90
2023-02-22T21:34:39.752Z,99.90
2023-02-22T21:37:08.262Z,99.90
2023-02-22T21:39:35.424Z,99.90
2023-02-22T21:42:02.597Z,99.90
2023-02-22T21:44:29.462Z,99.90
2023-02-22T21:46:56.355Z,99.90
2023-02-22T21:49:23.245Z,99.90
2023-02-22T21:51:51.621Z,99.90
2023-02-22T21:54:18.540Z,99.90
2023-02-22T21:56:45.700Z,99.90
2023-02-22T21:59:18.795Z,99.90
2023-02-22T22:01:47.469Z,99.90
2023-02-22T22:04:18.638Z,99.90
2023-02-22T22:06:46.816Z,99.90
2023-02-22T22:09:19.705Z,99.90
2023-02-22T22:12:00.218Z,99.90
2023-02-22T22:14:27.157Z,99.90
2023-02-22T22:16:55.863Z,99.90
2023-02-22T22:19:22.908Z,99.90
2023-02-22T22:21:53.317Z,99.90
2023-02-22T22:24:21.283Z,99.90
2023-02-22T22:26:51.113Z,99.90
2023-02-22T22:29:18.660Z,99.90
2023-02-22T22:31:45.857Z,99.90
2023-02-22T22:34:12.663Z,99.90
2023-02-22T22:36:39.337Z,99.90
2023-02-22T22:39:13.042Z,99.90
2023-02-22T22:41:40.273Z,99.90
2023-02-22T22:44:09.500Z,99.90
2023-02-22T22:46:42.258Z,99.90
2023-02-22T22:49:10.134Z,99.90
2023-02-22T22:51:37.263Z,99.90
2023-02-22T22:54:05.762Z,99.90
2023-02-22T22:56:35.227Z,99.90
2023-02-22T22:59:07.436Z,99.90
2023-02-22T23:01:39.118Z,99.90
2023-02-22T23:04:10.462Z,99.90
2023-02-22T23:06:39.994Z,99.90
2023-02-22T23:09:11.842Z,99.90
2023-02-22T23:11:44.258Z,99.90
2023-02-22T23:14:15.392Z,99.90
2023-02-22T23:16:42.890Z,99.90
2023-02-22T23:19:09.703Z,99.90
2023-02-22T23:21:36.773Z,99.90
2023-02-22T23:24:06.845Z,99.90
2023-02-22T23:26:34.023Z,99.90
2023-02-22T23:29:01.259Z,99.90
2023-02-22T23:31:32.107Z,99.90
2023-02-22T23:33:59.075Z,99.90
2023-02-22T23:36:26.160Z,99.90
2023-02-22T23:38:52.819Z,99.90
2023-02-22T23:41:19.855Z,99.90
2023-02-22T23:43:47.255Z,99.90
2023-02-22T23:46:18.379Z,99.90
2023-02-22T23:48:50.042Z,99.90
2023-02-22T23:51:23.529Z,99.90
2023-02-22T23:53:50.587Z,99.90
2023-02-22T23:56:20.933Z,99.90
2023-02-22T23:58:50.183Z,99.90
